METAR Data
IDs: Format: Raw Decoded Include TAF

Data at: 1729 UTC 03 Jul 2020

METAR for:KMIE (Muncie/Johnson Fld, IN, US)
Text:KMIE 031653Z 35005KT 10SM CLR 32/17 A3005 RMK AO2 SLP164 T03170167 $
Temperature: 31.7°C ( 89°F)
Dewpoint: 16.7°C ( 62°F) [RH = 41%]
Pressure (altimeter):30.05 inches Hg (1017.7 mb) [Sea level pressure: 1016.4 mb]
Winds:from the N (350 degrees) at 6 MPH (5 knots; 2.6 m/s)
Visibility:10 or more sm (16+ km)
Ceiling:at least 12,000 feet AGL
Clouds:sky clear below 12,000 feet AGL
QC Flag:SOME DATA ABOVE MAY BE INACCURATE!!!"$" is an indication the sensor requires maintenance.